Time;durP1;ratioP1;P1;durP2;ratioP2;P2;SDS_P1;SDS_P2;PMS_P1;PMS_P2;Temp;Humidity;BMP_temperature;BMP_pressure;BME280_temperature;BME280_humidity;BME280_pressure;Samples;Min_cycle;Max_cycle;Signal;HPM_P1;HPM_P2
2021/08/02 00:00:47;;;;;;;13.90;12.57;;;16.20;99.90;;;;;;5030878;28;20318;-65
2021/08/02 00:03:53;;;;;;;14.17;12.77;;;16.20;99.90;;;;;;5031417;28;20536;-65
2021/08/02 00:06:23;;;;;;;15.53;12.90;;;16.10;99.90;;;;;;4991928;28;20292;-65
2021/08/02 00:08:56;;;;;;;14.40;13.00;;;16.30;99.90;;;;;;5051174;28;20175;-66
2021/08/02 00:11:28;;;;;;;13.13;11.93;;;16.20;99.90;;;;;;5047151;28;20167;-66
2021/08/02 00:13:53;;;;;;;13.47;12.17;;;16.20;99.90;;;;;;5031235;28;20174;-65
2021/08/02 00:16:19;;;;;;;14.77;13.20;;;16.20;99.90;;;;;;5033511;28;20180;-64
2021/08/02 00:18:45;;;;;;;14.50;13.20;;;16.30;99.90;;;;;;5049797;28;20520;-65
2021/08/02 00:21:10;;;;;;;14.00;12.67;;;16.30;99.90;;;;;;5049607;28;20174;-65
2021/08/02 00:23:39;;;;;;;14.07;12.67;;;16.40;99.90;;;;;;5031222;28;20652;-65
2021/08/02 00:26:05;;;;;;;13.37;11.97;;;16.50;99.90;;;;;;5031006;28;20164;-65
2021/08/02 00:28:32;;;;;;;14.10;12.80;;;16.40;99.90;;;;;;5039416;28;20186;-64
2021/08/02 00:30:58;;;;;;;14.00;12.67;;;16.30;99.90;;;;;;5050893;28;20699;-65
2021/08/02 00:33:24;;;;;;;14.00;12.70;;;16.30;99.90;;;;;;5032714;28;20187;-65
2021/08/02 00:36:31;;;;;;;13.47;12.17;;;16.20;99.90;;;;;;5031028;28;20187;-65
2021/08/02 00:39:06;;;;;;;12.73;11.50;;;16.20;99.90;;;;;;5030886;28;20180;-65
2021/08/02 00:41:56;;;;;;;14.67;12.67;;;16.10;99.90;;;;;;5031808;28;20660;-65
2021/08/02 00:44:32;;;;;;;16.13;13.13;;;16.10;99.90;;;;;;5030917;28;20171;-65
2021/08/02 00:47:06;;;;;;;13.10;12.00;;;16.10;99.90;;;;;;5033918;28;20194;-65
2021/08/02 00:49:36;;;;;;;12.70;11.50;;;16.10;99.90;;;;;;5050577;28;20186;-65
2021/08/02 00:52:02;;;;;;;13.73;12.37;;;16.10;99.90;;;;;;5049334;28;20687;-65
2021/08/02 00:54:28;;;;;;;12.80;11.60;;;16.10;99.90;;;;;;5034412;28;20175;-65
2021/08/02 00:56:59;;;;;;;12.90;11.70;;;16.20;99.90;;;;;;5037132;28;20298;-65
2021/08/02 00:59:28;;;;;;;13.03;11.87;;;16.20;99.90;;;;;;5054154;28;20195;-65
2021/08/02 01:01:55;;;;;;;12.87;11.67;;;16.30;99.90;;;;;;5051221;28;20241;-65
2021/08/02 01:04:23;;;;;;;11.90;10.80;;;16.10;99.90;;;;;;5034162;28;20581;-66
2021/08/02 01:06:52;;;;;;;13.13;11.23;;;16.10;99.90;;;;;;5035120;28;20199;-66
2021/08/02 01:09:20;;;;;;;13.30;12.00;;;16.10;99.90;;;;;;5053947;28;20554;-65
2021/08/02 01:11:49;;;;;;;12.83;11.57;;;16.10;99.90;;;;;;5053466;28;20202;-65
2021/08/02 01:14:19;;;;;;;13.77;12.37;;;16.10;99.90;;;;;;5052491;28;20632;-65
2021/08/02 01:16:46;;;;;;;14.20;12.83;;;16.00;99.90;;;;;;5033995;28;20167;-65
2021/08/02 01:19:12;;;;;;;14.00;12.60;;;16.10;99.90;;;;;;5034993;28;20211;-65
2021/08/02 01:21:40;;;;;;;13.07;11.83;;;16.20;99.90;;;;;;5033871;28;20168;-65
2021/08/02 01:24:07;;;;;;;14.60;12.93;;;16.20;99.90;;;;;;5051940;28;20264;-64
2021/08/02 01:26:42;;;;;;;13.30;12.10;;;16.20;99.90;;;;;;5053764;28;20597;-65
2021/08/02 01:29:45;;;;;;;13.00;11.80;;;16.20;99.90;;;;;;5035306;28;20745;-65
2021/08/02 01:32:12;;;;;;;13.60;12.10;;;16.10;99.90;;;;;;5034869;28;20640;-66
2021/08/02 01:34:38;;;;;;;13.27;12.17;;;16.10;99.90;;;;;;5054077;28;20534;-65
2021/08/02 01:37:04;;;;;;;13.33;12.03;;;16.00;99.90;;;;;;5053332;28;20375;-65
2021/08/02 01:39:30;;;;;;;12.77;11.53;;;16.00;99.90;;;;;;5033331;28;20680;-65
2021/08/02 01:41:55;;;;;;;12.90;11.60;;;16.10;99.90;;;;;;5033426;28;20172;-66
2021/08/02 01:44:21;;;;;;;12.23;11.13;;;16.00;99.90;;;;;;5051472;28;20186;-65
2021/08/02 01:47:04;;;;;;;13.63;12.23;;;15.90;99.90;;;;;;5053280;28;20195;-65
2021/08/02 01:49:54;;;;;;;11.87;10.87;;;15.90;99.90;;;;;;5033916;28;20278;-65
2021/08/02 01:52:32;;;;;;;11.90;10.90;;;15.90;99.90;;;;;;5052582;28;20274;-65
2021/08/02 01:55:08;;;;;;;12.13;10.83;;;15.80;99.90;;;;;;5047014;28;20175;-66
2021/08/02 01:57:42;;;;;;;12.47;11.27;;;15.80;99.90;;;;;;5033446;28;20176;-65
2021/08/02 02:00:14;;;;;;;13.57;11.10;;;15.70;99.90;;;;;;5039218;28;20225;-65
2021/08/02 02:02:44;;;;;;;12.13;10.83;;;15.70;99.90;;;;;;5052776;28;20171;-66
2021/08/02 02:05:17;;;;;;;12.80;11.43;;;15.60;99.90;;;;;;5046486;28;20656;-65
2021/08/02 02:08:10;;;;;;;13.00;11.47;;;15.70;99.90;;;;;;5033123;28;20206;-65
2021/08/02 02:10:39;;;;;;;11.27;9.77;;;15.70;99.90;;;;;;5039982;28;20230;-66
2021/08/02 02:13:14;;;;;;;12.13;10.87;;;15.80;99.90;;;;;;5032529;28;20540;-70
2021/08/02 02:15:41;;;;;;;11.20;10.30;;;15.70;99.90;;;;;;5042650;28;20175;-71
2021/08/02 02:18:09;;;;;;;11.63;10.63;;;15.60;99.90;;;;;;5053971;28;20671;-68
2021/08/02 02:20:36;;;;;;;12.03;10.77;;;15.70;99.90;;;;;;5052930;28;20571;-69
2021/08/02 02:23:02;;;;;;;13.07;11.60;;;15.60;99.90;;;;;;5053960;28;20265;-68
2021/08/02 02:25:28;;;;;;;12.63;11.53;;;15.70;99.90;;;;;;5046513;28;20264;-68
2021/08/02 02:27:54;;;;;;;12.13;11.03;;;15.70;99.90;;;;;;5034075;28;20203;-70
2021/08/02 02:30:20;;;;;;;11.73;10.60;;;15.70;99.90;;;;;;5038559;28;20187;-68
2021/08/02 02:32:46;;;;;;;12.43;11.23;;;15.60;99.90;;;;;;5052820;28;20267;-71
2021/08/02 02:35:12;;;;;;;12.43;11.33;;;15.60;99.90;;;;;;5050014;28;20736;-72
2021/08/02 02:37:40;;;;;;;12.43;11.27;;;15.70;99.90;;;;;;5034305;28;20199;-68
2021/08/02 02:40:06;;;;;;;13.70;12.13;;;15.80;99.90;;;;;;5035382;28;20230;-68
2021/08/02 02:42:33;;;;;;;13.00;11.80;;;15.80;99.90;;;;;;5052540;28;20182;-68
2021/08/02 02:45:00;;;;;;;12.90;11.60;;;15.80;99.90;;;;;;5052571;28;20231;-67
2021/08/02 02:47:27;;;;;;;12.67;10.83;;;15.80;99.90;;;;;;5032979;28;20243;-70
2021/08/02 02:49:54;;;;;;;11.80;10.60;;;15.90;99.90;;;;;;5032045;28;20199;-70
2021/08/02 02:52:20;;;;;;;11.70;10.60;;;16.00;99.90;;;;;;5033742;28;20231;-70
2021/08/02 02:54:48;;;;;;;11.07;10.10;;;15.90;99.90;;;;;;5033845;28;20164;-71
2021/08/02 02:57:15;;;;;;;11.70;10.60;;;15.90;99.90;;;;;;5051422;28;20171;-71
2021/08/02 02:59:41;;;;;;;11.77;10.67;;;15.90;99.90;;;;;;5051569;28;20210;-68
2021/08/02 03:02:07;;;;;;;11.67;10.57;;;15.90;99.90;;;;;;5036575;28;20179;-67
2021/08/02 03:04:38;;;;;;;11.23;10.07;;;16.00;99.90;;;;;;5032132;28;20179;-67
2021/08/02 03:07:06;;;;;;;11.23;10.13;;;15.90;99.90;;;;;;5048486;28;20190;-69
2021/08/02 03:09:35;;;;;;;11.33;10.33;;;15.90;99.90;;;;;;5053045;28;20278;-68
2021/08/02 03:12:01;;;;;;;11.63;10.43;;;16.00;99.90;;;;;;5036508;28;20197;-71
2021/08/02 03:14:27;;;;;;;11.60;10.60;;;16.00;99.90;;;;;;5031649;28;20251;-68
2021/08/02 03:16:53;;;;;;;11.83;10.73;;;15.90;99.90;;;;;;5044628;28;20654;-68
2021/08/02 03:19:19;;;;;;;11.03;10.13;;;16.00;99.90;;;;;;5052216;28;20195;-65
2021/08/02 03:21:45;;;;;;;11.63;10.53;;;16.00;99.90;;;;;;5013727;28;20675;-66
2021/08/02 03:24:13;;;;;;;12.13;10.93;;;15.90;99.90;;;;;;5030763;28;20191;-66
2021/08/02 03:26:49;;;;;;;10.50;9.50;;;16.00;99.90;;;;;;5040257;28;20217;-66
2021/08/02 03:29:33;;;;;;;11.10;10.20;;;16.00;99.90;;;;;;5050368;28;20251;-65
2021/08/02 03:32:10;;;;;;;12.10;10.90;;;16.00;99.90;;;;;;5039407;28;20270;-66
2021/08/02 03:34:37;;;;;;;12.33;10.97;;;16.00;99.90;;;;;;5030562;28;20183;-66
2021/08/02 03:37:06;;;;;;;13.30;12.17;;;16.10;99.90;;;;;;5043508;28;20174;-66
2021/08/02 03:39:33;;;;;;;12.40;11.30;;;16.10;99.90;;;;;;5072050;23;20203;-65
2021/08/02 03:42:01;;;;;;;11.23;9.97;;;16.00;99.90;;;;;;5051097;28;20179;-65
2021/08/02 03:44:27;;;;;;;12.00;10.90;;;16.10;99.90;;;;;;5051347;28;20163;-65
2021/08/02 03:46:54;;;;;;;11.67;10.63;;;16.10;99.90;;;;;;5051418;28;20214;-66
2021/08/02 03:49:20;;;;;;;12.93;11.63;;;16.00;99.90;;;;;;5051086;28;20171;-66
2021/08/02 03:51:49;;;;;;;12.90;10.33;;;16.00;99.90;;;;;;5042924;28;20269;-68
2021/08/02 03:54:16;;;;;;;13.60;11.53;;;16.00;99.90;;;;;;5033726;28;20660;-66
2021/08/02 03:56:45;;;;;;;12.03;10.90;;;16.00;99.90;;;;;;5049958;28;20262;-65
2021/08/02 03:59:12;;;;;;;12.33;11.10;;;16.00;99.90;;;;;;5049664;28;20171;-65
2021/08/02 04:01:42;;;;;;;12.50;11.20;;;16.00;99.90;;;;;;5034954;28;20181;-66
2021/08/02 04:04:08;;;;;;;11.70;10.70;;;16.00;99.90;;;;;;5050458;28;20305;-65
2021/08/02 04:06:35;;;;;;;11.50;10.60;;;15.90;99.90;;;;;;5031459;28;20282;-65
2021/08/02 04:09:03;;;;;;;12.83;11.53;;;15.80;99.90;;;;;;5031345;28;20570;-66
2021/08/02 04:11:29;;;;;;;13.73;12.43;;;15.80;99.90;;;;;;5050172;28;20206;-66
2021/08/02 04:13:54;;;;;;;12.37;11.27;;;15.80;99.90;;;;;;5051358;28;20167;-65
2021/08/02 04:16:20;;;;;;;13.77;11.77;;;15.80;99.90;;;;;;5033301;28;20175;-65
2021/08/02 04:18:45;;;;;;;12.50;11.40;;;15.80;99.90;;;;;;5030976;28;20226;-64
2021/08/02 04:21:11;;;;;;;12.93;11.50;;;15.90;99.90;;;;;;5045948;28;20276;-66
2021/08/02 04:23:37;;;;;;;12.80;11.53;;;15.90;99.90;;;;;;5051117;28;20178;-65
2021/08/02 04:26:02;;;;;;;11.97;10.77;;;15.90;99.90;;;;;;5037773;28;20175;-64
2021/08/02 04:28:28;;;;;;;12.00;10.90;;;15.80;99.90;;;;;;5034447;28;20199;-65
2021/08/02 04:30:54;;;;;;;12.83;11.57;;;15.90;99.90;;;;;;5046511;28;20199;-65
2021/08/02 04:33:20;;;;;;;11.83;10.67;;;16.00;99.90;;;;;;5054800;28;20162;-65
2021/08/02 04:35:45;;;;;;;12.43;11.17;;;16.00;99.90;;;;;;5043824;28;20218;-66
2021/08/02 04:38:11;;;;;;;12.13;11.03;;;16.10;99.90;;;;;;5033529;28;20175;-64
2021/08/02 04:40:36;;;;;;;12.03;10.80;;;16.10;99.90;;;;;;5035514;28;20211;-64
2021/08/02 04:43:03;;;;;;;16.07;11.33;;;16.10;99.90;;;;;;5034507;28;20179;-64
2021/08/02 04:45:29;;;;;;;11.27;10.13;;;16.10;99.90;;;;;;5041835;28;20186;-65
2021/08/02 04:47:55;;;;;;;12.07;11.00;;;16.10;99.90;;;;;;5054333;28;20668;-65
2021/08/02 04:50:21;;;;;;;11.23;10.23;;;16.10;99.90;;;;;;5048352;28;20201;-65
2021/08/02 04:52:50;;;;;;;11.10;10.00;;;16.00;99.90;;;;;;5033033;28;20175;-65
2021/08/02 04:55:17;;;;;;;15.10;10.90;;;15.90;99.90;;;;;;5038807;28;20163;-64
2021/08/02 04:57:43;;;;;;;14.53;11.57;;;15.90;99.90;;;;;;5054242;28;20171;-64
2021/08/02 05:00:10;;;;;;;11.97;10.97;;;15.90;99.90;;;;;;5050704;28;20206;-64
2021/08/02 05:02:35;;;;;;;12.43;11.20;;;15.90;99.90;;;;;;5034115;28;20254;-65
2021/08/02 05:05:01;;;;;;;11.17;10.03;;;15.90;99.90;;;;;;5034883;28;20266;-64
2021/08/02 05:07:27;;;;;;;10.23;9.33;;;15.90;99.90;;;;;;5054293;28;20208;-65
2021/08/02 05:09:52;;;;;;;11.20;10.20;;;15.90;99.90;;;;;;5053570;28;20701;-65
2021/08/02 05:12:18;;;;;;;10.57;9.67;;;15.90;99.90;;;;;;5034622;28;20183;-65
2021/08/02 05:14:44;;;;;;;10.60;9.50;;;16.00;99.90;;;;;;5033941;28;20167;-64
2021/08/02 05:17:09;;;;;;;14.80;13.50;;;16.20;99.90;;;;;;5050901;28;20183;-65
2021/08/02 05:19:35;;;;;;;10.00;9.20;;;16.40;99.90;;;;;;5053623;28;20217;-65
2021/08/02 05:22:01;;;;;;;10.73;9.83;;;16.40;99.90;;;;;;5051927;28;20179;-65
2021/08/02 05:24:27;;;;;;;10.80;9.53;;;16.40;99.90;;;;;;5054038;28;20171;-64
2021/08/02 05:26:52;;;;;;;10.47;9.47;;;16.60;99.90;;;;;;5039779;28;20214;-65
2021/08/02 05:29:18;;;;;;;10.50;9.43;;;16.70;99.90;;;;;;5033450;28;20167;-65
2021/08/02 05:31:43;;;;;;;9.43;8.73;;;17.00;99.90;;;;;;5052635;28;20535;-65
2021/08/02 05:34:11;;;;;;;9.73;8.90;;;17.20;99.90;;;;;;5053598;28;20179;-66
2021/08/02 05:36:38;;;;;;;10.03;9.23;;;17.30;99.90;;;;;;5035264;28;20349;-65
2021/08/02 05:39:03;;;;;;;10.43;9.43;;;17.40;99.90;;;;;;5033520;28;20175;-66
2021/08/02 05:41:29;;;;;;;10.10;9.30;;;17.40;99.90;;;;;;5048669;28;20268;-66
2021/08/02 05:43:55;;;;;;;8.77;8.17;;;17.50;99.90;;;;;;5053572;28;20166;-65
2021/08/02 05:46:20;;;;;;;8.40;7.70;;;17.40;99.90;;;;;;5039084;28;20183;-66
2021/08/02 05:48:46;;;;;;;8.93;8.23;;;17.30;99.90;;;;;;5033348;28;20172;-65
2021/08/02 05:51:12;;;;;;;10.17;9.27;;;17.30;99.90;;;;;;5044787;28;20191;-66
2021/08/02 05:53:38;;;;;;;12.87;9.90;;;17.20;99.90;;;;;;5050245;28;20880;-66
2021/08/02 05:56:03;;;;;;;8.77;8.00;;;17.20;99.90;;;;;;5033120;28;20179;-65
2021/08/02 05:58:29;;;;;;;8.27;7.73;;;17.20;99.90;;;;;;5036107;28;20184;-66
2021/08/02 06:00:54;;;;;;;9.43;8.73;;;17.30;99.90;;;;;;5050925;28;20287;-65
2021/08/02 06:03:21;;;;;;;9.50;8.60;;;17.30;99.90;;;;;;5044815;28;20179;-66
2021/08/02 06:05:47;;;;;;;8.60;7.90;;;17.40;99.90;;;;;;5032901;28;20228;-66
2021/08/02 06:08:13;;;;;;;10.07;9.10;;;17.50;99.90;;;;;;5039795;28;20206;-65
2021/08/02 06:10:38;;;;;;;10.57;7.80;;;17.50;99.90;;;;;;5052346;28;20262;-65
2021/08/02 06:13:04;;;;;;;8.73;8.03;;;17.60;99.90;;;;;;5047207;28;20198;-66
2021/08/02 06:15:29;;;;;;;8.90;8.20;;;17.60;99.90;;;;;;5032866;28;20230;-65
2021/08/02 06:17:55;;;;;;;8.67;7.80;;;17.50;99.90;;;;;;5035558;28;20236;-65
2021/08/02 06:20:21;;;;;;;13.73;8.47;;;17.50;99.90;;;;;;5052211;28;20197;-65
2021/08/02 06:22:46;;;;;;;10.17;9.30;;;17.40;99.90;;;;;;5050778;28;20167;-65
2021/08/02 06:25:12;;;;;;;10.87;10.03;;;17.40;99.90;;;;;;5032368;28;20526;-65
2021/08/02 06:27:38;;;;;;;10.80;9.83;;;17.40;99.90;;;;;;5032445;28;20560;-65
2021/08/02 06:30:04;;;;;;;9.43;8.33;;;17.30;99.90;;;;;;5051259;28;20248;-64
2021/08/02 06:32:30;;;;;;;9.60;8.80;;;17.40;99.90;;;;;;5052454;28;20556;-65
2021/08/02 06:34:56;;;;;;;9.40;8.60;;;17.50;99.90;;;;;;5034134;28;20183;-65
2021/08/02 06:37:23;;;;;;;9.50;8.67;;;17.60;99.90;;;;;;5032487;28;20545;-65
2021/08/02 06:39:49;;;;;;;10.07;8.17;;;17.70;99.90;;;;;;5047648;28;20646;-65
2021/08/02 06:42:15;;;;;;;9.23;8.30;;;17.70;99.90;;;;;;5050563;28;20186;-66
2021/08/02 06:44:41;;;;;;;8.60;8.00;;;17.70;99.90;;;;;;5047808;28;20202;-65
2021/08/02 06:47:07;;;;;;;8.80;8.00;;;17.60;99.90;;;;;;5051739;28;20209;-67
2021/08/02 06:49:33;;;;;;;8.87;7.50;;;17.50;99.90;;;;;;5031735;28;20199;-66
2021/08/02 06:51:58;;;;;;;8.47;7.90;;;17.60;99.90;;;;;;5031956;28;20171;-66
2021/08/02 06:54:24;;;;;;;8.50;7.90;;;17.60;99.90;;;;;;5049404;28;20208;-65
2021/08/02 06:56:50;;;;;;;8.50;7.90;;;17.50;99.90;;;;;;5051822;28;20174;-66
2021/08/02 06:59:16;;;;;;;8.90;7.77;;;17.40;99.90;;;;;;5036015;28;20175;-65
2021/08/02 07:01:41;;;;;;;8.07;7.37;;;17.30;99.90;;;;;;5032054;28;20171;-65
2021/08/02 07:04:07;;;;;;;8.17;7.47;;;17.20;99.90;;;;;;5045307;28;20244;-65
2021/08/02 07:06:32;;;;;;;11.00;7.17;;;17.10;99.90;;;;;;5051619;28;20171;-66
2021/08/02 07:08:58;;;;;;;7.23;6.80;;;17.00;99.90;;;;;;5039602;28;20203;-66
2021/08/02 07:11:25;;;;;;;7.17;6.63;;;17.20;99.90;;;;;;5031442;28;20273;-65
2021/08/02 07:13:51;;;;;;;7.70;7.20;;;17.20;99.90;;;;;;5040199;28;20170;-66
2021/08/02 07:16:17;;;;;;;7.73;7.17;;;17.20;99.90;;;;;;5051756;28;20173;-66
2021/08/02 07:18:42;;;;;;;8.80;8.10;;;17.40;99.90;;;;;;5043217;28;20260;-66
2021/08/02 07:21:08;;;;;;;8.50;7.90;;;17.60;99.90;;;;;;5031208;28;20196;-66
2021/08/02 07:23:33;;;;;;;7.63;7.03;;;17.80;99.90;;;;;;5032689;28;20175;-66
2021/08/02 07:25:59;;;;;;;7.80;7.00;;;17.90;99.90;;;;;;5031533;28;20175;-66
2021/08/02 07:28:25;;;;;;;6.90;6.20;;;18.00;99.90;;;;;;5035734;28;20198;-66
2021/08/02 07:30:50;;;;;;;7.70;6.90;;;18.10;99.90;;;;;;5050979;28;20222;-65
2021/08/02 07:33:16;;;;;;;9.70;7.10;;;18.10;99.90;;;;;;5049660;28;20621;-66
2021/08/02 07:35:41;;;;;;;7.57;6.87;;;18.30;99.90;;;;;;5051540;28;20171;-67
2021/08/02 07:38:07;;;;;;;7.97;7.27;;;18.40;99.90;;;;;;5045475;28;20317;-66
2021/08/02 07:40:33;;;;;;;7.50;6.13;;;18.50;99.90;;;;;;5040640;28;20215;-66
2021/08/02 07:42:59;;;;;;;7.80;6.57;;;18.50;99.90;;;;;;5036308;28;20185;-66
2021/08/02 07:45:24;;;;;;;7.83;7.10;;;18.60;99.90;;;;;;5051292;28;20173;-67
2021/08/02 07:47:50;;;;;;;6.03;5.73;;;18.70;99.90;;;;;;5047657;28;20198;-66
2021/08/02 07:50:16;;;;;;;7.10;6.60;;;18.70;99.90;;;;;;5036382;28;20225;-66
2021/08/02 07:52:43;;;;;;;6.67;6.17;;;18.70;99.90;;;;;;5047665;28;20178;-67
2021/08/02 07:55:11;;;;;;;6.83;6.23;;;18.80;99.90;;;;;;5031232;28;20545;-66
2021/08/02 07:57:37;;;;;;;7.57;6.87;;;18.90;99.90;;;;;;5037343;28;20646;-66
2021/08/02 08:00:06;;;;;;;6.80;5.90;;;18.90;99.90;;;;;;5053057;28;20248;-65
2021/08/02 08:02:31;;;;;;;6.73;6.23;;;19.00;99.90;;;;;;5050437;28;20190;-66
2021/08/02 08:04:57;;;;;;;7.43;6.43;;;19.00;99.90;;;;;;5034960;28;20171;-66
2021/08/02 08:07:23;;;;;;;6.30;5.70;;;19.10;99.90;;;;;;5037460;28;20246;-65
2021/08/02 08:09:48;;;;;;;7.03;6.60;;;19.10;99.90;;;;;;5054257;28;20190;-66
2021/08/02 08:12:14;;;;;;;6.80;6.30;;;19.00;99.90;;;;;;5054199;28;20171;-66
2021/08/02 08:14:39;;;;;;;6.73;6.17;;;18.90;99.90;;;;;;5034376;28;20172;-65
2021/08/02 08:17:05;;;;;;;6.33;5.87;;;19.00;99.90;;;;;;5034815;28;20214;-66
2021/08/02 08:19:31;;;;;;;6.00;5.70;;;19.20;99.90;;;;;;5052203;28;20238;-66
2021/08/02 08:21:57;;;;;;;6.47;5.80;;;19.30;99.90;;;;;;5054541;28;20170;-65
2021/08/02 08:24:24;;;;;;;6.10;5.70;;;19.50;99.90;;;;;;5053181;28;20186;-66
2021/08/02 08:26:49;;;;;;;6.63;5.90;;;19.60;99.90;;;;;;5054430;28;20199;-66
2021/08/02 08:29:15;;;;;;;5.80;5.50;;;19.50;99.90;;;;;;5038817;28;20182;-66
2021/08/02 08:31:41;;;;;;;6.57;5.97;;;19.40;99.90;;;;;;5034676;28;20172;-66
2021/08/02 08:34:06;;;;;;;6.80;6.10;;;19.30;99.90;;;;;;5035574;28;20214;-66
2021/08/02 08:36:32;;;;;;;6.17;5.67;;;19.00;99.90;;;;;;5034777;28;20264;-66
2021/08/02 08:38:58;;;;;;;6.80;6.20;;;18.80;99.90;;;;;;5045570;28;20597;-64
2021/08/02 08:41:23;;;;;;;6.77;5.70;;;18.50;99.90;;;;;;5049994;28;20290;-66
2021/08/02 08:43:53;;;;;;;6.23;5.70;;;18.60;99.90;;;;;;5041387;28;20170;-66
2021/08/02 08:46:21;;;;;;;6.57;5.97;;;18.70;99.90;;;;;;5044204;28;20217;-66
2021/08/02 08:48:48;;;;;;;5.70;5.30;;;18.80;99.90;;;;;;5041710;28;20198;-65
2021/08/02 08:51:14;;;;;;;7.03;6.23;;;18.90;99.90;;;;;;5039334;28;20229;-66
2021/08/02 08:53:42;;;;;;;5.93;5.63;;;19.00;99.90;;;;;;5034346;28;20171;-66
2021/08/02 08:56:08;;;;;;;6.40;6.00;;;19.20;99.90;;;;;;5046644;28;20183;-66
2021/08/02 08:58:34;;;;;;;5.70;5.40;;;19.20;99.90;;;;;;5054336;28;20258;-66
2021/08/02 09:01:04;;;;;;;6.07;5.37;;;19.30;99.90;;;;;;5039742;28;20289;-65
2021/08/02 09:03:30;;;;;;;6.97;5.83;;;19.40;99.90;;;;;;5045578;28;20683;-66
2021/08/02 09:06:05;;;;;;;5.57;5.17;;;19.60;99.90;;;;;;5040219;28;20179;-67
2021/08/02 09:08:40;;;;;;;7.13;5.97;;;19.60;99.90;;;;;;5053944;28;20202;-66
2021/08/02 09:11:06;;;;;;;6.60;6.17;;;19.70;99.90;;;;;;5044338;28;20668;-66
2021/08/02 09:13:36;;;;;;;7.17;6.77;;;19.60;99.90;;;;;;5049442;28;20270;-66
2021/08/02 09:16:17;;;;;;;5.43;5.03;;;19.70;99.90;;;;;;5033010;28;20574;-65
2021/08/02 09:18:58;;;;;;;6.03;4.80;;;20.20;99.90;;;;;;5037992;28;20183;-66
2021/08/02 09:21:25;;;;;;;5.13;4.83;;;20.60;99.90;;;;;;5046095;28;20206;-66
2021/08/02 09:23:53;;;;;;;5.20;4.80;;;21.20;99.90;;;;;;5039093;28;20187;-65
2021/08/02 09:26:42;;;;;;;5.23;4.87;;;21.70;99.90;;;;;;5037059;28;20179;-66
2021/08/02 09:29:11;;;;;;;4.45;4.25;;;22.20;99.90;;;;;;5043687;28;20195;-66
2021/08/02 09:31:39;;;;;;;6.57;5.10;;;22.40;99.90;;;;;;5053186;28;20186;-66
2021/08/02 09:34:07;;;;;;;5.32;4.85;;;22.40;99.90;;;;;;5048047;28;20666;-66
2021/08/02 09:36:47;;;;;;;4.97;4.63;;;22.30;99.90;;;;;;5053478;28;20261;-66
2021/08/02 09:39:16;;;;;;;5.05;4.75;;;22.60;99.90;;;;;;5051724;28;20257;-66
2021/08/02 09:41:43;;;;;;;4.75;4.38;;;22.70;99.90;;;;;;5051116;23;20219;-66
2021/08/02 09:44:38;;;;;;;5.03;4.60;;;23.00;99.90;;;;;;5032600;28;20571;-66
2021/08/02 09:47:07;;;;;;;5.05;4.57;;;23.00;99.90;;;;;;5023981;28;20305;-66
2021/08/02 09:49:47;;;;;;;4.10;3.85;;;23.20;99.90;;;;;;5027146;28;20231;-66
2021/08/02 09:52:16;;;;;;;3.83;3.63;;;23.90;99.90;;;;;;5023841;28;20185;-66
2021/08/02 09:54:42;;;;;;;4.28;4.07;;;24.30;99.90;;;;;;5030520;28;20180;-66
2021/08/02 09:57:08;;;;;;;4.30;4.10;;;24.20;99.90;;;;;;5032797;28;20668;-66
2021/08/02 09:59:41;;;;;;;4.30;4.10;;;24.30;99.90;;;;;;5032628;28;20183;-66
2021/08/02 10:02:07;;;;;;;4.53;4.22;;;24.70;99.90;;;;;;5032784;28;20175;-66
2021/08/02 10:04:33;;;;;;;5.05;4.25;;;25.10;99.90;;;;;;5032549;28;20237;-66
2021/08/02 10:07:00;;;;;;;5.40;4.10;;;25.20;99.90;;;;;;5032599;28;20192;-66
2021/08/02 10:09:28;;;;;;;4.20;4.00;;;25.50;99.90;;;;;;5032638;28;20175;-66
2021/08/02 10:11:58;;;;;;;4.72;4.07;;;25.70;99.90;;;;;;5032299;28;20257;-66
2021/08/02 10:14:31;;;;;;;4.47;4.28;;;26.10;99.90;;;;;;5032843;28;20233;-66
2021/08/02 10:17:01;;;;;;;4.32;4.07;;;26.10;99.90;;;;;;5032185;28;20187;-66
2021/08/02 10:19:39;;;;;;;4.13;3.90;;;26.30;99.90;;;;;;5032382;28;20229;-66
2021/08/02 10:22:05;;;;;;;4.45;4.15;;;26.60;99.90;;;;;;5032097;28;20188;-66
2021/08/02 10:24:31;;;;;;;4.25;4.03;;;26.30;99.90;;;;;;5032729;28;20182;-65
2021/08/02 10:26:59;;;;;;;5.00;4.65;;;25.70;99.90;;;;;;5027820;28;20688;-65
2021/08/02 10:29:41;;;;;;;4.60;4.30;;;25.20;99.90;;;;;;5031025;28;20178;-65
2021/08/02 10:32:25;;;;;;;4.80;4.50;;;25.10;99.90;;;;;;5031849;28;20668;-65
2021/08/02 10:34:52;;;;;;;4.88;4.47;;;24.70;99.90;;;;;;5031207;28;20601;-65
2021/08/02 10:37:35;;;;;;;4.40;4.10;;;24.60;99.90;;;;;;5032162;28;20533;-65
2021/08/02 10:40:05;;;;;;;4.22;3.90;;;24.30;99.90;;;;;;5031805;28;20718;-65
2021/08/02 10:42:31;;;;;;;5.00;4.60;;;23.80;99.90;;;;;;5031913;28;20188;-65
2021/08/02 10:44:58;;;;;;;5.53;4.95;;;23.60;99.90;;;;;;5031711;28;20551;-65
2021/08/02 10:47:36;;;;;;;4.97;4.68;;;23.40;99.90;;;;;;5031819;28;20218;-65
2021/08/02 10:50:01;;;;;;;4.60;4.20;;;23.10;99.90;;;;;;5030996;28;20196;-65
2021/08/02 10:52:29;;;;;;;5.38;4.80;;;22.90;99.90;;;;;;5032132;28;20202;-65
2021/08/02 10:54:55;;;;;;;5.90;5.32;;;22.70;99.90;;;;;;5031912;28;20259;-65
2021/08/02 10:57:20;;;;;;;5.13;4.80;;;22.00;99.90;;;;;;5030740;28;20668;-65
2021/08/02 10:59:46;;;;;;;6.03;5.70;;;21.50;99.90;;;;;;5031507;28;20210;-65
2021/08/02 11:02:13;;;;;;;6.23;5.30;;;21.00;99.90;;;;;;5031945;28;20191;-65
2021/08/02 11:04:40;;;;;;;5.97;5.57;;;20.80;99.90;;;;;;5031768;28;20191;-65
2021/08/02 11:07:06;;;;;;;6.20;5.70;;;20.60;99.90;;;;;;5031386;28;20199;-65
2021/08/02 11:09:34;;;;;;;5.23;4.80;;;20.50;99.90;;;;;;5031400;28;20172;-65
2021/08/02 11:12:13;;;;;;;5.97;5.50;;;20.70;99.90;;;;;;5031033;28;20179;-65
2021/08/02 11:14:54;;;;;;;5.90;5.50;;;20.90;99.90;;;;;;5031655;28;20583;-65
2021/08/02 11:17:21;;;;;;;6.93;6.10;;;20.90;99.90;;;;;;5031861;28;20186;-65
2021/08/02 11:19:52;;;;;;;6.73;5.30;;;20.70;99.90;;;;;;5030899;28;20194;-65
2021/08/02 11:22:18;;;;;;;5.47;5.17;;;20.80;99.90;;;;;;5031301;28;20180;-65
2021/08/02 11:24:55;;;;;;;5.67;5.23;;;20.70;99.90;;;;;;5031727;28;20190;-65
2021/08/02 11:27:21;;;;;;;5.10;4.80;;;20.70;99.90;;;;;;5029731;28;20206;-65
2021/08/02 11:29:55;;;;;;;5.70;5.40;;;20.90;99.90;;;;;;5030988;28;20175;-65
2021/08/02 11:32:21;;;;;;;8.73;4.97;;;21.00;99.90;;;;;;5031324;28;20596;-65
2021/08/02 11:34:53;;;;;;;5.90;5.37;;;21.10;99.90;;;;;;5031126;28;20183;-65
2021/08/02 11:37:24;;;;;;;6.30;5.70;;;21.00;99.90;;;;;;5031457;28;20258;-65
2021/08/02 11:40:02;;;;;;;5.27;4.97;;;21.10;99.90;;;;;;5030958;28;20668;-64
2021/08/02 11:42:32;;;;;;;5.80;5.30;;;21.10;99.90;;;;;;5031417;28;20541;-65
2021/08/02 11:45:01;;;;;;;5.47;5.07;;;20.90;99.90;;;;;;5030716;28;20191;-65
2021/08/02 11:47:32;;;;;;;5.10;4.80;;;21.00;99.90;;;;;;5030952;28;20702;-65
2021/08/02 11:49:58;;;;;;;5.30;5.00;;;21.30;99.90;;;;;;5030272;28;20202;-64
2021/08/02 11:52:26;;;;;;;6.30;5.70;;;21.50;99.90;;;;;;5031325;28;20183;-64
2021/08/02 11:55:04;;;;;;;5.17;4.80;;;21.60;99.90;;;;;;5031179;28;20171;-65
2021/08/02 11:57:29;;;;;;;5.50;5.10;;;21.90;99.90;;;;;;5029932;28;20184;-65
2021/08/02 12:00:04;;;;;;;5.13;4.83;;;22.00;99.90;;;;;;5030493;28;20218;-65
2021/08/02 12:02:34;;;;;;;5.93;5.17;;;22.20;99.90;;;;;;5031064;28;20182;-65
2021/08/02 12:05:01;;;;;;;5.22;4.82;;;22.40;99.90;;;;;;5025811;28;20535;-65
2021/08/02 12:07:28;;;;;;;5.30;4.90;;;22.40;99.90;;;;;;5028004;28;20199;-65
2021/08/02 12:09:54;;;;;;;5.03;4.70;;;23.00;99.90;;;;;;5030708;28;20191;-65
2021/08/02 12:12:22;;;;;;;5.15;4.75;;;23.50;99.90;;;;;;5030924;28;20556;-65
2021/08/02 12:14:48;;;;;;;5.03;4.63;;;24.30;99.90;;;;;;5030838;28;20260;-65
2021/08/02 12:17:13;;;;;;;5.78;5.22;;;24.50;99.90;;;;;;5031051;28;20179;-65
2021/08/02 12:19:48;;;;;;;5.43;5.03;;;24.60;99.90;;;;;;5030902;28;20659;-65
2021/08/02 12:22:22;;;;;;;5.72;5.03;;;24.80;99.90;;;;;;5031008;28;20229;-65
2021/08/02 12:24:54;;;;;;;5.85;5.35;;;24.80;99.90;;;;;;5031138;28;20302;-64
2021/08/02 12:27:20;;;;;;;5.38;4.95;;;24.60;99.90;;;;;;5030991;28;20546;-65
2021/08/02 12:30:01;;;;;;;4.95;4.65;;;24.60;99.90;;;;;;5031101;28;20533;-65
2021/08/02 12:32:45;;;;;;;5.60;5.20;;;24.80;99.90;;;;;;5019125;28;20176;-65
2021/08/02 12:35:17;;;;;;;5.65;5.13;;;24.80;99.90;;;;;;5030704;28;20182;-65
2021/08/02 12:37:44;;;;;;;5.40;5.10;;;24.40;99.90;;;;;;5031415;28;20230;-65
2021/08/02 12:40:16;;;;;;;5.30;4.88;;;24.40;99.90;;;;;;5030363;28;20245;-65
2021/08/02 12:42:47;;;;;;;5.10;4.70;;;24.90;99.90;;;;;;5031021;28;20183;-65
2021/08/02 12:45:14;;;;;;;5.07;4.57;;;25.10;99.90;;;;;;5030431;28;20179;-65